Time;durP1;ratioP1;P1;durP2;ratioP2;P2;SDS_P1;SDS_P2;PMS_P1;PMS_P2;Temp;Humidity;BMP_temperature;BMP_pressure;BME280_temperature;BME280_humidity;BME280_pressure;Samples;Min_cycle;Max_cycle;Signal;HPM_P1;HPM_P2
2021/07/12 00:00:00;;;;;;;4.27;3.40;;;;;;;18.62;63.32;96494.63;5093256;28;20431;-67
2021/07/12 00:02:25;;;;;;;4.50;4.10;;;;;;;18.68;63.39;96484.97;5093056;28;20468;-67
2021/07/12 00:04:51;;;;;;;3.97;3.67;;;;;;;18.55;63.76;96484.09;5093897;28;20322;-68
2021/07/12 00:07:17;;;;;;;4.13;3.50;;;;;;;18.54;63.53;96487.78;5094188;28;20504;-68
2021/07/12 00:09:43;;;;;;;4.00;3.60;;;;;;;18.64;63.04;96487.28;5093975;28;20185;-67
2021/07/12 00:12:09;;;;;;;4.23;3.80;;;;;;;18.52;63.49;96479.25;5094001;28;20258;-66
2021/07/12 00:14:34;;;;;;;4.63;3.50;;;;;;;18.41;63.64;96482.63;5088979;28;20423;-68
2021/07/12 00:17:00;;;;;;;5.43;3.33;;;;;;;18.49;63.37;96478.88;5093464;28;20668;-68
2021/07/12 00:19:25;;;;;;;3.80;3.50;;;;;;;18.52;63.23;96476.59;5094205;28;20178;-69
2021/07/12 00:21:51;;;;;;;4.50;3.53;;;;;;;18.46;63.57;96474.03;5093505;28;20197;-68
2021/07/12 00:24:19;;;;;;;4.43;3.23;;;;;;;18.50;63.23;96464.56;5094977;28;20196;-67
2021/07/12 00:26:48;;;;;;;5.60;3.80;;;;;;;18.50;62.94;96462.75;5097017;28;20228;-68
2021/07/12 00:29:14;;;;;;;5.00;3.40;;;;;;;18.50;62.98;96460.09;5096616;28;20431;-68
2021/07/12 00:31:40;;;;;;;3.60;3.30;;;;;;;18.48;63.03;96470.09;5093671;28;20826;-68
2021/07/12 00:34:05;;;;;;;3.80;3.50;;;;;;;18.46;63.42;96471.38;5096464;28;20177;-67
2021/07/12 00:36:31;;;;;;;4.20;3.30;;;;;;;18.46;63.44;96464.22;5092802;28;20189;-68
2021/07/12 00:38:57;;;;;;;4.13;3.73;;;;;;;18.46;63.35;96461.56;5094533;28;20193;-68
2021/07/12 00:41:22;;;;;;;4.40;4.00;;;;;;;18.45;63.98;96451.19;5097686;28;20209;-70
2021/07/12 00:43:48;;;;;;;4.17;3.87;;;;;;;18.42;64.41;96447.94;5094231;28;20650;-68
2021/07/12 00:46:14;;;;;;;4.23;3.83;;;;;;;18.44;64.67;96444.25;5093099;28;20182;-67
2021/07/12 00:48:39;;;;;;;8.27;4.00;;;;;;;18.43;64.80;96443.41;5093731;28;20590;-67
2021/07/12 00:51:05;;;;;;;4.03;3.63;;;;;;;18.42;64.57;96437.31;5099366;28;20757;-68
2021/07/12 00:53:31;;;;;;;4.60;4.20;;;;;;;18.41;64.98;96440.19;5091879;28;20427;-67
2021/07/12 00:55:57;;;;;;;6.20;4.07;;;;;;;18.38;65.29;96436.13;5091782;28;20182;-67
2021/07/12 00:58:25;;;;;;;3.43;3.13;;;;;;;18.36;64.97;96435.53;5091566;28;20772;-68
2021/07/12 01:00:54;;;;;;;4.13;3.83;;;;;;;18.34;64.81;96434.16;5093367;28;20173;-67
2021/07/12 01:03:21;;;;;;;4.67;3.60;;;;;;;18.29;64.87;96432.16;5092414;28;20424;-68
2021/07/12 01:05:47;;;;;;;4.97;3.87;;;;;;;18.23;65.16;96425.91;5092832;28;20431;-67
2021/07/12 01:08:12;;;;;;;4.73;4.23;;;;;;;18.19;65.36;96427.34;5092750;28;20424;-68
2021/07/12 01:10:39;;;;;;;6.73;4.47;;;;;;;18.22;65.40;96426.09;5092727;28;20665;-69
2021/07/12 01:13:30;;;;;;;4.53;4.13;;;;;;;18.16;65.34;96427.78;5091130;28;20189;-67
2021/07/12 01:16:09;;;;;;;4.77;3.90;;;;;;;18.15;65.43;96423.50;5090189;28;20515;-67
2021/07/12 01:18:58;;;;;;;5.10;3.93;;;;;;;18.09;65.73;96424.41;5085401;28;20424;-69
2021/07/12 01:21:52;;;;;;;3.97;3.67;;;;;;;18.03;66.15;96419.97;5091093;28;20496;-67
2021/07/12 01:24:32;;;;;;;7.27;4.50;;;;;;;17.98;66.58;96420.63;5091895;28;20424;-68
2021/07/12 01:27:19;;;;;;;5.70;4.43;;;;;;;18.05;66.35;96423.22;5091318;28;20428;-67
2021/07/12 01:30:16;;;;;;;5.40;4.00;;;;;;;17.90;66.83;96412.94;5090846;28;20862;-67
2021/07/12 01:32:53;;;;;;;6.07;4.60;;;;;;;17.92;67.14;96401.06;5092273;28;20531;-67
2021/07/12 01:35:27;;;;;;;5.83;4.80;;;;;;;17.90;67.34;96405.78;5092036;28;20473;-67
2021/07/12 01:38:09;;;;;;;4.67;3.77;;;;;;;17.92;66.88;96406.38;5092268;28;20495;-67
2021/07/12 01:41:05;;;;;;;4.80;4.40;;;;;;;17.92;67.23;96409.03;5092231;28;20415;-67
2021/07/12 01:43:44;;;;;;;5.30;4.73;;;;;;;17.93;67.04;96396.59;5089896;28;20488;-67
2021/07/12 01:46:15;;;;;;;6.20;4.70;;;;;;;17.92;67.70;96401.06;5090469;28;21035;-67
2021/07/12 01:49:05;;;;;;;5.07;4.67;;;;;;;17.91;67.43;96394.16;5092781;28;20443;-67
2021/07/12 01:51:38;;;;;;;10.93;5.33;;;;;;;17.88;67.26;96391.97;5093534;28;20460;-67
2021/07/12 01:54:10;;;;;;;8.00;4.57;;;;;;;17.86;67.45;96394.00;5094665;28;20910;-68
2021/07/12 01:56:42;;;;;;;5.90;4.57;;;;;;;17.85;67.67;96387.09;5091227;28;20437;-68
2021/07/12 01:59:37;;;;;;;11.67;5.10;;;;;;;17.84;67.71;96388.13;5090539;28;20444;-68
2021/07/12 02:02:04;;;;;;;6.83;5.43;;;;;;;17.83;67.77;96381.19;5091254;28;20983;-67
2021/07/12 02:04:30;;;;;;;5.43;4.93;;;;;;;17.72;68.84;96393.31;5089983;28;20419;-67
2021/07/12 02:06:57;;;;;;;5.57;4.50;;;;;;;17.79;68.38;96385.28;5090008;28;20763;-67
2021/07/12 02:09:23;;;;;;;5.60;5.10;;;;;;;17.79;68.38;96380.00;5090222;28;20416;-68
2021/07/12 02:11:49;;;;;;;5.63;5.00;;;;;;;17.82;68.32;96387.53;5091632;28;20554;-68
2021/07/12 02:14:20;;;;;;;5.50;4.97;;;;;;;17.80;68.16;96393.03;5084713;28;20413;-68
2021/07/12 02:16:48;;;;;;;6.87;5.00;;;;;;;17.78;68.50;96392.44;5090002;28;20768;-67
2021/07/12 02:19:14;;;;;;;6.50;5.30;;;;;;;17.71;68.71;96396.19;5091420;28;20527;-68
2021/07/12 02:21:42;;;;;;;7.80;5.20;;;;;;;17.75;68.66;96389.44;5090560;28;20570;-68
2021/07/12 02:24:08;;;;;;;11.07;5.70;;;;;;;17.77;68.28;96388.19;5089011;28;20794;-67
2021/07/12 02:26:35;;;;;;;5.80;5.20;;;;;;;17.65;68.50;96400.50;5089746;28;20463;-67
2021/07/12 02:29:02;;;;;;;5.20;4.70;;;;;;;17.58;68.76;96400.56;5092602;28;20415;-69
2021/07/12 02:31:29;;;;;;;17.00;5.53;;;;;;;17.68;68.40;96399.25;5091272;28;21137;-67
2021/07/12 02:33:56;;;;;;;4.80;4.33;;;;;;;17.66;68.31;96392.34;5089889;28;20412;-67
2021/07/12 02:36:23;;;;;;;5.37;4.80;;;;;;;17.64;68.19;96386.44;5089754;28;20473;-67
2021/07/12 02:38:49;;;;;;;5.30;4.67;;;;;;;17.63;68.02;96381.38;5089577;28;20442;-68
2021/07/12 02:41:15;;;;;;;5.33;4.83;;;;;;;17.40;68.76;96387.25;5089457;28;20436;-68
2021/07/12 02:43:40;;;;;;;5.10;4.60;;;;;;;17.44;68.46;96393.75;5086551;28;21400;-68
2021/07/12 02:46:06;;;;;;;5.17;4.57;;;;;;;17.49;68.26;96388.63;5088339;28;20426;-68
2021/07/12 02:48:33;;;;;;;5.07;4.20;;;;;;;17.49;67.87;96375.38;5089652;28;20671;-68
2021/07/12 02:51:01;;;;;;;6.13;4.57;;;;;;;17.50;67.53;96371.72;5090815;28;20747;-67
2021/07/12 02:53:32;;;;;;;4.30;3.80;;;;;;;17.46;67.22;96370.50;5089065;28;20458;-68
2021/07/12 02:55:58;;;;;;;5.07;4.20;;;;;;;17.33;67.47;96382.84;5096083;28;20426;-67
2021/07/12 02:58:24;;;;;;;4.43;4.00;;;;;;;17.26;67.62;96387.38;5098825;28;20498;-67
2021/07/12 03:00:49;;;;;;;6.70;4.63;;;;;;;17.24;67.62;96389.44;5097314;28;20166;-67
2021/07/12 03:03:15;;;;;;;9.73;4.73;;;;;;;17.26;67.47;96391.84;5097041;28;20810;-67
2021/07/12 03:05:41;;;;;;;5.90;4.47;;;;;;;17.30;67.51;96388.56;5097818;28;20185;-68
2021/07/12 03:08:31;;;;;;;9.60;4.47;;;;;;;17.32;67.30;96383.84;5096513;28;20186;-66
2021/07/12 03:10:59;;;;;;;4.07;3.77;;;;;;;17.30;67.02;96390.41;5095635;28;20193;-67
2021/07/12 03:13:41;;;;;;;4.93;4.43;;;;;;;17.28;66.84;96380.00;5095419;28;20498;-68
2021/07/12 03:16:07;;;;;;;6.80;4.37;;;;;;;17.25;66.95;96375.16;5076519;28;20503;-67
2021/07/12 03:18:43;;;;;;;4.50;4.10;;;;;;;17.24;67.16;96372.72;5096182;28;20458;-67
2021/07/12 03:21:08;;;;;;;4.70;4.00;;;;;;;17.25;66.93;96369.03;5094911;28;20434;-67
2021/07/12 03:23:43;;;;;;;8.60;5.33;;;;;;;17.22;67.00;96370.28;5096047;28;20568;-67
2021/07/12 03:26:10;;;;;;;11.57;8.70;;;;;;;17.21;67.04;96363.38;5104709;28;20260;-67
2021/07/12 03:28:37;;;;;;;14.77;10.40;;;;;;;17.18;67.03;96361.97;5095878;28;20893;-67
2021/07/12 03:31:03;;;;;;;12.20;7.83;;;;;;;17.19;66.92;96357.47;5096418;28;20459;-67
2021/07/12 03:33:30;;;;;;;9.07;6.07;;;;;;;17.18;67.04;96350.56;5087080;28;20423;-68
2021/07/12 03:35:56;;;;;;;5.40;4.30;;;;;;;17.19;67.16;96357.47;5093349;28;20964;-67
2021/07/12 03:38:23;;;;;;;8.20;4.80;;;;;;;17.18;66.94;96351.38;5097251;28;20428;-67
2021/07/12 03:40:50;;;;;;;4.27;3.93;;;;;;;17.19;66.91;96352.19;5097077;28;20174;-67
2021/07/12 03:43:16;;;;;;;4.87;3.80;;;;;;;17.16;66.62;96356.09;5096936;28;20941;-67
2021/07/12 03:45:43;;;;;;;5.53;4.20;;;;;;;17.12;66.87;96348.78;5097262;28;20914;-67
2021/07/12 03:48:09;;;;;;;4.20;3.80;;;;;;;17.16;66.90;96357.91;5097489;28;20511;-68
2021/07/12 03:50:35;;;;;;;5.60;3.90;;;;;;;17.17;66.80;96349.75;5097079;28;20443;-67
2021/07/12 03:53:02;;;;;;;5.40;4.07;;;;;;;17.18;66.58;96345.25;5095560;28;20435;-68
2021/07/12 03:55:30;;;;;;;4.80;4.40;;;;;;;17.16;66.71;96344.66;5095706;28;20422;-67
2021/07/12 03:57:57;;;;;;;5.67;4.63;;;;;;;17.08;66.94;96352.88;5097354;28;20427;-67
2021/07/12 04:00:24;;;;;;;7.87;4.13;;;;;;;17.09;66.78;96349.22;5095575;28;20473;-67
2021/07/12 04:02:50;;;;;;;10.97;4.30;;;;;;;17.09;66.79;96351.84;5075878;28;20428;-68
2021/07/12 04:05:17;;;;;;;6.50;4.17;;;;;;;17.12;66.60;96346.13;5091834;28;20430;-67
2021/07/12 04:07:43;;;;;;;5.60;4.10;;;;;;;17.17;66.68;96356.88;5093790;28;20424;-68
2021/07/12 04:10:10;;;;;;;4.40;4.00;;;;;;;17.17;66.33;96346.28;5093315;28;20954;-67
2021/07/12 04:12:37;;;;;;;5.70;4.37;;;;;;;17.17;66.53;96347.13;5093743;28;20444;-68
2021/07/12 04:15:03;;;;;;;5.43;4.50;;;;;;;17.20;66.62;96333.44;5085340;28;20568;-68
2021/07/12 04:17:29;;;;;;;5.50;4.70;;;;;;;17.23;66.57;96321.63;5094196;28;20477;-68
2021/07/12 04:19:54;;;;;;;5.70;4.70;;;;;;;17.26;66.84;96317.72;5094024;28;20972;-67
2021/07/12 04:22:20;;;;;;;5.50;4.90;;;;;;;17.30;66.64;96316.25;5093462;28;20217;-68
2021/07/12 04:24:46;;;;;;;6.80;4.67;;;;;;;17.34;66.75;96317.44;5072071;28;20265;-67
2021/07/12 04:27:11;;;;;;;7.57;4.90;;;;;;;17.41;66.81;96309.44;5091553;28;20178;-68
2021/07/12 04:29:37;;;;;;;11.53;4.70;;;;;;;17.45;67.30;96321.22;5093349;28;20195;-68
2021/07/12 04:32:03;;;;;;;4.90;4.50;;;;;;;17.50;67.70;96314.25;5092060;28;20259;-68
2021/07/12 04:34:29;;;;;;;5.80;4.93;;;;;;;17.60;67.77;96308.44;5071871;28;20193;-68
2021/07/12 04:36:55;;;;;;;5.10;4.20;;;;;;;17.70;67.70;96317.72;5072357;28;20425;-68
2021/07/12 04:39:21;;;;;;;9.20;4.67;;;;;;;17.81;67.58;96311.69;5074385;28;21026;-66
2021/07/12 04:41:46;;;;;;;5.50;4.87;;;;;;;17.87;67.70;96308.19;5092612;28;20197;-67
2021/07/12 04:44:12;;;;;;;9.33;5.13;;;;;;;17.91;67.41;96314.63;5092808;28;20182;-69
2021/07/12 04:46:37;;;;;;;6.90;4.90;;;;;;;18.03;67.03;96312.09;5093069;28;20207;-68
2021/07/12 04:49:03;;;;;;;6.80;4.73;;;;;;;18.09;66.97;96321.81;5092974;28;20598;-68
2021/07/12 04:51:30;;;;;;;7.47;4.43;;;;;;;18.19;66.79;96321.28;5092734;28;20213;-66
2021/07/12 04:53:56;;;;;;;8.33;4.70;;;;;;;18.32;66.41;96319.50;5093555;28;20423;-67
2021/07/12 04:56:21;;;;;;;5.33;3.97;;;;;;;18.43;66.02;96326.72;5100576;28;20938;-67
2021/07/12 04:58:48;;;;;;;6.40;5.23;;;;;;;18.35;65.91;96327.03;5096349;28;20174;-67
2021/07/12 05:01:15;;;;;;;5.60;4.90;;;;;;;18.36;66.13;96328.66;5096637;28;20198;-67
2021/07/12 05:03:41;;;;;;;5.03;4.53;;;;;;;18.49;65.75;96339.09;5094061;28;20469;-68
2021/07/12 05:06:07;;;;;;;7.83;4.20;;;;;;;18.37;66.11;96332.91;5092073;28;20407;-67
2021/07/12 05:08:32;;;;;;;5.20;4.70;;;;;;;18.57;65.97;96346.72;5093164;28;20418;-67
2021/07/12 05:10:58;;;;;;;7.83;4.67;;;;;;;18.75;65.19;96329.16;5093902;28;20201;-66
2021/07/12 05:13:24;;;;;;;9.33;4.90;;;;;;;18.86;65.10;96335.53;5095032;28;20257;-67
2021/07/12 05:15:50;;;;;;;5.30;4.80;;;;;;;19.00;64.57;96333.53;5096730;28;20469;-69
2021/07/12 05:18:15;;;;;;;6.53;4.87;;;;;;;19.12;64.32;96329.06;5098953;27;20177;-66
2021/07/12 05:20:41;;;;;;;7.73;4.63;;;;;;;19.08;63.94;96314.59;5094357;28;20178;-67
2021/07/12 05:23:07;;;;;;;5.87;5.23;;;;;;;19.15;63.41;96320.59;5092079;28;20259;-67
2021/07/12 05:25:32;;;;;;;5.50;4.43;;;;;;;19.18;63.50;96312.19;5076774;28;20179;-67
2021/07/12 05:27:58;;;;;;;7.47;4.67;;;;;;;19.31;63.04;96316.50;5080606;28;20269;-68
2021/07/12 05:30:24;;;;;;;6.30;5.03;;;;;;;19.40;63.00;96319.63;5084479;28;20189;-68
2021/07/12 05:32:49;;;;;;;4.70;4.30;;;;;;;19.34;63.24;96309.91;5077147;28;20198;-68
2021/07/12 05:35:15;;;;;;;6.87;4.30;;;;;;;19.56;62.28;96307.50;5079354;28;20174;-66
2021/07/12 05:37:41;;;;;;;5.80;4.97;;;;;;;19.64;62.09;96303.69;5076468;28;20182;-67
2021/07/12 05:40:08;;;;;;;7.73;5.07;;;;;;;19.84;61.26;96302.50;5089859;28;20196;-67
2021/07/12 05:42:35;;;;;;;6.00;4.93;;;;;;;20.00;60.86;96299.16;5091259;28;21035;-67
2021/07/12 05:45:01;;;;;;;5.70;4.73;;;;;;;20.17;60.33;96301.88;5087996;28;20428;-71
2021/07/12 05:47:26;;;;;;;7.43;4.20;;;;;;;20.21;60.85;96294.22;5091332;28;20500;-67
2021/07/12 05:49:52;;;;;;;5.57;4.67;;;;;;;20.46;59.89;96296.59;5092554;28;20177;-68
2021/07/12 05:52:17;;;;;;;6.33;4.43;;;;;;;20.64;59.92;96287.59;5092591;28;20202;-67
2021/07/12 05:54:43;;;;;;;8.93;4.87;;;;;;;20.58;60.19;96285.88;5090736;28;20178;-69
2021/07/12 05:57:09;;;;;;;13.43;4.73;;;;;;;20.80;59.26;96293.19;5093259;28;20203;-68
2021/07/12 05:59:36;;;;;;;3.90;3.60;;;;;;;21.02;58.63;96307.44;5091949;28;20177;-69
2021/07/12 06:02:05;;;;;;;4.40;4.00;;;;;;;21.14;57.96;96303.88;5091971;28;20432;-67
2021/07/12 06:04:31;;;;;;;6.70;4.37;;;;;;;21.25;57.30;96308.31;5091551;28;20420;-68
2021/07/12 06:06:56;;;;;;;10.37;3.90;;;;;;;21.31;57.34;96302.00;5092262;28;20856;-68
2021/07/12 06:09:22;;;;;;;8.60;4.50;;;;;;;21.25;57.16;96300.34;5089085;28;20179;-68
2021/07/12 06:11:47;;;;;;;5.23;3.37;;;;;;;21.64;56.27;96307.59;5083167;28;20632;-67
2021/07/12 06:14:13;;;;;;;8.03;4.30;;;;;;;21.74;56.44;96309.59;5088156;28;20193;-67
2021/07/12 06:16:39;;;;;;;7.27;4.17;;;;;;;22.00;55.52;96309.94;5090852;28;20280;-69
2021/07/12 06:19:04;;;;;;;10.27;5.60;;;;;;;22.11;55.73;96300.22;5093049;28;20178;-70
2021/07/12 06:21:30;;;;;;;13.67;5.03;;;;;;;22.40;54.22;96298.13;5091461;28;20193;-68
2021/07/12 06:23:55;;;;;;;11.23;3.80;;;;;;;22.62;53.55;96306.13;5073191;28;20170;-68
2021/07/12 06:26:21;;;;;;;8.03;4.57;;;;;;;22.64;53.22;96296.00;5091018;28;20177;-68
2021/07/12 06:28:47;;;;;;;9.53;3.53;;;;;;;22.63;53.44;96280.25;5091732;28;20182;-69
2021/07/12 06:31:12;;;;;;;11.93;3.70;;;;;;;22.61;52.93;96282.34;5091094;28;20229;-67
2021/07/12 06:33:38;;;;;;;4.50;2.93;;;;;;;22.67;52.47;96281.38;5087064;28;20629;-69
2021/07/12 06:36:05;;;;;;;6.10;4.20;;;;;;;22.54;52.51;96274.53;5085887;28;20178;-69
2021/07/12 06:38:31;;;;;;;5.80;2.40;;;;;;;22.43;52.06;96273.63;5094100;28;20242;-68
2021/07/12 06:40:58;;;;;;;7.93;3.30;;;;;;;22.70;52.31;96267.47;5091953;28;20420;-68
2021/07/12 06:43:23;;;;;;;5.23;2.60;;;;;;;22.69;52.23;96273.88;5089310;28;20503;-68
2021/07/12 06:45:49;;;;;;;8.20;2.97;;;;;;;22.99;51.73;96272.56;5091857;28;20505;-68
2021/07/12 06:48:14;;;;;;;8.37;3.73;;;;;;;22.83;51.65;96261.72;5090458;28;20554;-69
2021/07/12 06:50:40;;;;;;;15.27;3.97;;;;;;;23.04;51.39;96264.59;5091469;28;20603;-68
2021/07/12 06:53:06;;;;;;;9.90;3.90;;;;;;;23.34;51.17;96268.56;5090964;28;20194;-70
2021/07/12 06:55:31;;;;;;;8.87;3.50;;;;;;;23.22;51.09;96266.09;5091795;28;20546;-69
2021/07/12 06:57:57;;;;;;;11.03;4.13;;;;;;;23.21;51.13;96258.31;5091348;28;20177;-68
2021/07/12 07:00:23;;;;;;;9.87;5.00;;;;;;;22.95;52.24;96260.75;5091224;28;20169;-68
2021/07/12 07:02:49;;;;;;;9.40;3.90;;;;;;;23.07;51.66;96247.22;5091159;28;20197;-69
2021/07/12 07:05:15;;;;;;;10.37;4.07;;;;;;;23.29;51.48;96245.28;5089194;28;20174;-66
2021/07/12 07:07:40;;;;;;;18.13;4.40;;;;;;;23.32;51.48;96233.25;5090972;28;20178;-67
2021/07/12 07:10:07;;;;;;;5.53;3.23;;;;;;;23.17;52.08;96226.75;5090690;28;20420;-68
2021/07/12 07:12:33;;;;;;;9.00;3.10;;;;;;;23.27;51.60;96234.03;5091541;28;20212;-68
2021/07/12 07:14:59;;;;;;;11.30;3.17;;;;;;;23.51;51.41;96233.63;5088315;28;20949;-67
2021/07/12 07:17:25;;;;;;;9.90;2.70;;;;;;;23.27;51.87;96225.22;5090706;28;20412;-66
2021/07/12 07:19:51;;;;;;;10.40;4.70;;;;;;;22.98;52.47;96226.34;5091150;28;20749;-69
2021/07/12 07:22:16;;;;;;;7.80;4.40;;;;;;;23.40;51.04;96207.91;5091030;28;20213;-67
2021/07/12 07:24:42;;;;;;;16.17;7.87;;;;;;;23.50;51.01;96215.19;5091595;28;20630;-67
2021/07/12 07:27:09;;;;;;;3.67;2.57;;;;;;;23.54;50.79;96218.97;5091701;28;20182;-70
2021/07/12 07:29:35;;;;;;;8.50;3.97;;;;;;;23.38;50.92;96210.84;5090747;28;20238;-68
2021/07/12 07:32:00;;;;;;;5.23;3.50;;;;;;;23.69;50.31;96197.63;5091336;28;20538;-69
2021/07/12 07:34:26;;;;;;;4.53;2.50;;;;;;;24.00;49.32;96195.09;5091469;28;20265;-67
2021/07/12 07:36:51;;;;;;;3.67;2.00;;;;;;;24.13;49.47;96187.63;5090729;28;20494;-68
2021/07/12 07:39:17;;;;;;;2.27;2.13;;;;;;;24.36;48.98;96175.66;5089293;28;20189;-69
2021/07/12 07:41:42;;;;;;;4.87;2.80;;;;;;;24.44;48.57;96168.97;5092418;28;20687;-67
2021/07/12 07:44:08;;;;;;;3.00;2.20;;;;;;;24.36;48.62;96163.06;5092633;28;20197;-69
2021/07/12 07:46:34;;;;;;;2.00;1.77;;;;;;;24.84;47.39;96162.81;5094774;28;20189;-67
2021/07/12 07:49:02;;;;;;;2.80;2.60;;;;;;;24.98;47.85;96160.38;5093744;28;20239;-68
2021/07/12 07:51:31;;;;;;;3.20;2.37;;;;;;;24.79;49.33;96160.13;5053240;28;20463;-69
2021/07/12 07:53:56;;;;;;;3.20;2.17;;;;;;;25.04;47.68;96163.84;5094846;28;20495;-68
2021/07/12 07:56:22;;;;;;;3.20;2.00;;;;;;;25.14;47.09;96165.72;5094875;28;20234;-67
2021/07/12 07:58:48;;;;;;;3.60;2.20;;;;;;;24.99;46.57;96166.56;5094753;28;20174;-67
2021/07/12 08:01:13;;;;;;;3.27;2.30;;;;;;;24.76;46.58;96160.66;5094456;28;20190;-68
2021/07/12 08:03:39;;;;;;;4.30;2.27;;;;;;;24.68;47.43;96156.66;5092708;28;20563;-68
2021/07/12 08:06:04;;;;;;;7.70;4.07;;;;;;;24.88;47.26;96156.94;5094385;28;20177;-68
2021/07/12 08:08:30;;;;;;;3.47;2.90;;;;;;;25.28;46.49;96155.22;5092957;28;20180;-69
2021/07/12 08:10:56;;;;;;;2.53;2.33;;;;;;;25.68;46.01;96150.03;5093861;28;20194;-69
2021/07/12 08:13:22;;;;;;;1.40;1.30;;;;;;;25.58;45.89;96140.94;5090241;28;20170;-67
2021/07/12 08:15:47;;;;;;;1.60;1.50;;;;;;;25.69;46.18;96143.59;5094051;28;20181;-68
2021/07/12 08:18:14;;;;;;;6.10;2.47;;;;;;;25.52;46.33;96147.41;5093496;28;20193;-68
2021/07/12 08:20:40;;;;;;;5.73;1.70;;;;;;;25.63;45.28;96139.31;5093577;28;20207;-67
2021/07/12 08:23:06;;;;;;;5.30;2.77;;;;;;;25.92;45.12;96148.28;5093657;28;20436;-69
2021/07/12 08:25:31;;;;;;;4.00;2.57;;;;;;;25.88;45.64;96146.44;5093986;28;20197;-67
2021/07/12 08:27:58;;;;;;;3.83;2.43;;;;;;;25.64;46.08;96138.25;5092498;28;20193;-68
2021/07/12 08:30:24;;;;;;;3.87;3.20;;;;;;;25.83;45.72;96133.88;5102222;28;20194;-68
2021/07/12 08:32:49;;;;;;;5.10;2.77;;;;;;;26.21;45.08;96125.31;5075678;28;20789;-69
2021/07/12 08:35:16;;;;;;;6.30;4.10;;;;;;;26.60;44.52;96129.03;5093413;28;20269;-68
2021/07/12 08:37:41;;;;;;;1.90;1.80;;;;;;;26.50;43.71;96121.91;5093511;28;20174;-68
2021/07/12 08:40:09;;;;;;;5.67;2.17;;;;;;;25.83;45.00;96119.63;5093197;28;20447;-69
2021/07/12 08:42:36;;;;;;;2.80;1.87;;;;;;;26.04;44.34;96114.94;5093982;28;20271;-67
2021/07/12 08:45:04;;;;;;;7.13;4.83;;;;;;;26.48;43.96;96108.72;5090828;28;20424;-65
2021/07/12 08:47:29;;;;;;;4.83;3.47;;;;;;;26.24;44.74;96094.44;5093632;28;20192;-66
2021/07/12 08:49:55;;;;;;;4.87;2.30;;;;;;;26.44;43.99;96086.22;5093921;28;20432;-68
2021/07/12 08:52:21;;;;;;;6.00;2.23;;;;;;;26.65;43.67;96089.50;5092815;28;20242;-68
2021/07/12 08:54:46;;;;;;;3.97;2.00;;;;;;;26.91;43.39;96100.03;5074951;28;20685;-68
2021/07/12 08:57:12;;;;;;;7.40;2.20;;;;;;;27.27;42.36;96117.66;5093436;28;20636;-69
2021/07/12 08:59:40;;;;;;;6.10;2.07;;;;;;;27.67;41.49;96123.69;5094105;28;20185;-68
2021/07/12 09:02:07;;;;;;;2.37;2.13;;;;;;;27.98;40.66;96120.53;5093732;28;20647;-70
2021/07/12 09:04:40;;;;;;;4.60;2.23;;;;;;;27.30;41.95;96114.41;5093903;28;20428;-70
2021/07/12 09:07:08;;;;;;;1.90;1.80;;;;;;;27.05;42.05;96118.16;5091975;28;20420;-69
2021/07/12 09:09:34;;;;;;;2.10;1.90;;;;;;;27.78;40.90;96115.47;5094436;28;20431;-68
2021/07/12 09:12:17;;;;;;;3.20;2.00;;;;;;;27.93;40.64;96126.03;5094406;28;20985;-68
2021/07/12 09:15:03;;;;;;;2.90;2.70;;;;;;;27.78;41.06;96110.91;5092217;28;20420;-67
2021/07/12 09:17:34;;;;;;;5.53;3.03;;;;;;;27.84;40.95;96114.31;5101525;28;20967;-66
2021/07/12 09:20:00;;;;;;;1.83;1.70;;;;;;;27.86;41.03;96112.91;5105163;28;20427;-68
2021/07/12 09:22:34;;;;;;;2.30;1.53;;;;;;;28.02;40.83;96116.19;5088783;28;20538;-68
2021/07/12 09:25:04;;;;;;;5.60;1.60;;;;;;;28.18;40.79;96113.31;5094722;28;20917;-69
2021/07/12 09:27:31;;;;;;;9.20;5.10;;;;;;;27.94;41.02;96119.56;5087428;28;21288;-67
2021/07/12 09:29:58;;;;;;;3.27;1.70;;;;;;;28.16;41.11;96110.09;5099472;28;20427;-69
2021/07/12 09:32:30;;;;;;;4.40;1.37;;;;;;;28.40;39.63;96117.28;5105192;28;20520;-67
2021/07/12 09:35:01;;;;;;;2.07;1.40;;;;;;;28.15;40.43;96119.28;5105860;28;20491;-68
2021/07/12 09:37:27;;;;;;;5.10;1.63;;;;;;;28.60;39.38;96119.66;5087143;28;20454;-69
2021/07/12 09:39:57;;;;;;;2.90;2.03;;;;;;;28.75;38.86;96117.78;5093421;28;20455;-68
2021/07/12 09:42:27;;;;;;;2.53;2.03;;;;;;;29.07;37.82;96114.25;5093080;28;20473;-68
2021/07/12 09:45:01;;;;;;;1.93;1.83;;;;;;;29.30;37.45;96118.97;5090249;28;20427;-68
2021/07/12 09:47:35;;;;;;;5.03;2.43;;;;;;;29.13;38.09;96117.66;5084135;28;21003;-69
2021/07/12 09:50:12;;;;;;;6.80;1.57;;;;;;;29.23;38.50;96108.56;5092347;28;20484;-69
2021/07/12 09:52:38;;;;;;;2.53;1.73;;;;;;;29.40;36.98;96102.59;5086006;28;20443;-69
2021/07/12 09:55:04;;;;;;;2.80;1.50;;;;;;;29.30;36.83;96105.47;5092118;28;20428;-67
2021/07/12 09:57:30;;;;;;;2.63;1.50;;;;;;;29.48;36.31;96093.81;5092319;28;20181;-67
2021/07/12 10:00:06;;;;;;;4.63;3.10;;;;;;;28.99;37.22;96088.00;5093166;28;20420;-67
2021/07/12 10:02:35;;;;;;;2.87;1.70;;;;;;;29.72;36.51;96080.06;5092735;28;20239;-69
2021/07/12 10:05:08;;;;;;;2.13;1.90;;;;;;;29.74;35.97;96074.34;5091387;28;20495;-68
2021/07/12 10:07:34;;;;;;;2.27;1.70;;;;;;;29.98;34.88;96076.81;5091961;28;20419;-69
2021/07/12 10:10:01;;;;;;;3.73;1.70;;;;;;;29.82;35.56;96076.34;5091935;28;20734;-68
2021/07/12 10:12:27;;;;;;;1.60;1.40;;;;;;;30.09;35.07;96088.19;5083709;28;20686;-69
2021/07/12 10:14:54;;;;;;;2.23;1.73;;;;;;;30.00;35.30;96076.50;5088656;28;20495;-67
2021/07/12 10:17:21;;;;;;;1.53;1.43;;;;;;;30.13;34.42;96064.84;5091771;28;20500;-68
2021/07/12 10:19:47;;;;;;;2.37;1.50;;;;;;;29.80;35.65;96075.06;5090268;28;20844;-69
2021/07/12 10:22:14;;;;;;;2.90;1.67;;;;;;;30.04;35.17;96074.78;5091566;28;20439;-66
2021/07/12 10:24:45;;;;;;;3.93;1.53;;;;;;;30.43;33.91;96076.00;5091105;28;20431;-69
2021/07/12 10:27:27;;;;;;;1.60;1.40;;;;;;;30.68;33.72;96071.09;5092348;28;20424;-68
2021/07/12 10:29:55;;;;;;;4.90;1.67;;;;;;;29.86;34.78;96073.81;5091047;28;20789;-68
2021/07/12 10:32:23;;;;;;;2.53;1.60;;;;;;;30.24;33.50;96075.41;5091168;28;20577;-69
2021/07/12 10:34:54;;;;;;;1.77;1.67;;;;;;;30.35;33.61;96076.75;5090906;28;20458;-68
2021/07/12 10:37:19;;;;;;;5.67;1.47;;;;;;;30.32;33.39;96080.06;5091306;28;20776;-68
2021/07/12 10:40:00;;;;;;;3.17;2.23;;;;;;;30.24;33.41;96086.22;5090517;28;20530;-68
2021/07/12 10:42:43;;;;;;;2.33;2.13;;;;;;;30.43;33.00;96089.53;5090992;28;20931;-68
2021/07/12 10:45:20;;;;;;;3.00;2.00;;;;;;;30.56;32.88;96084.38;5088434;28;20420;-67
2021/07/12 10:47:54;;;;;;;3.23;1.77;;;;;;;30.48;33.06;96096.69;5090157;28;20447;-67
2021/07/12 10:50:34;;;;;;;1.57;1.47;;;;;;;29.96;34.12;96084.41;5090954;28;20431;-68
2021/07/12 10:53:01;;;;;;;4.13;2.00;;;;;;;29.57;35.07;96085.78;5091952;28;20518;-67
2021/07/12 10:55:33;;;;;;;2.23;1.40;;;;;;;29.71;34.50;96091.16;5082884;28;20454;-67
2021/07/12 10:58:18;;;;;;;1.60;1.50;;;;;;;29.66;34.85;96085.88;5091366;28;20429;-67
2021/07/12 11:00:44;;;;;;;1.67;1.57;;;;;;;29.79;34.65;96076.16;5091282;28;20412;-69
2021/07/12 11:03:36;;;;;;;1.80;1.70;;;;;;;29.77;34.52;96075.66;5089642;28;20465;-68
2021/07/12 11:06:13;;;;;;;1.33;1.23;;;;;;;29.62;35.05;96085.69;5090920;28;20762;-69
2021/07/12 11:08:42;;;;;;;1.60;1.50;;;;;;;29.88;34.51;96085.91;5091059;28;20420;-70
2021/07/12 11:11:09;;;;;;;2.90;1.40;;;;;;;29.79;34.44;96087.75;5090976;28;20962;-67
2021/07/12 11:14:07;;;;;;;3.00;1.80;;;;;;;29.63;35.50;96084.59;5088418;28;20435;-68
2021/07/12 11:16:46;;;;;;;1.53;1.33;;;;;;;30.36;33.50;96083.75;5093605;28;20435;-69
2021/07/12 11:19:24;;;;;;;5.23;2.20;;;;;;;30.35;32.96;96076.75;5095008;28;20423;-69
2021/07/12 11:21:50;;;;;;;1.90;1.70;;;;;;;30.45;32.93;96079.22;5095353;28;20944;-67
2021/07/12 11:24:22;;;;;;;8.03;1.40;;;;;;;30.95;31.87;96080.91;5093271;28;20745;-67
2021/07/12 11:26:53;;;;;;;3.67;2.00;;;;;;;31.11;31.95;96083.19;5094787;28;20420;-68
2021/07/12 11:29:25;;;;;;;2.70;1.70;;;;;;;30.75;31.59;96076.06;5094291;28;20423;-69
2021/07/12 11:31:55;;;;;;;4.30;1.47;;;;;;;31.04;31.82;96080.94;5094424;28;20455;-69
2021/07/12 11:34:25;;;;;;;1.53;1.43;;;;;;;31.31;31.22;96079.16;5094132;28;20438;-68
2021/07/12 11:36:52;;;;;;;1.50;1.40;;;;;;;31.40;31.10;96077.25;5095159;28;20427;-69